createdAt,value
2023-03-13T00:00:04.046Z,7.70
2023-03-13T00:01:04.029Z,7.69
2023-03-13T00:02:04.025Z,7.67
2023-03-13T00:03:03.990Z,7.67
2023-03-13T00:04:03.975Z,7.66
2023-03-13T00:05:04.010Z,7.66
2023-03-13T00:06:03.969Z,7.66
2023-03-13T00:07:03.937Z,7.66
2023-03-13T00:08:03.928Z,7.66
2023-03-13T00:09:03.934Z,7.67
2023-03-13T00:10:03.923Z,7.66
2023-03-13T00:11:03.875Z,7.63
2023-03-13T00:12:03.904Z,7.66
2023-03-13T00:13:03.894Z,7.61
2023-03-13T00:14:03.848Z,7.57
2023-03-13T00:15:03.905Z,7.58
2023-03-13T00:16:03.941Z,7.57
2023-03-13T00:17:03.886Z,7.57
2023-03-13T00:18:03.786Z,7.58
2023-03-13T00:19:03.788Z,7.57
2023-03-13T00:20:03.774Z,7.57
2023-03-13T00:21:03.766Z,7.54
2023-03-13T00:22:03.731Z,7.53
2023-03-13T00:23:03.723Z,7.51
2023-03-13T00:24:03.721Z,7.51
2023-03-13T00:25:03.695Z,7.50
2023-03-13T00:26:03.689Z,7.47
2023-03-13T00:27:03.680Z,7.47
2023-03-13T00:28:03.686Z,7.47
2023-03-13T00:29:03.660Z,7.45
2023-03-13T00:30:03.641Z,7.48
2023-03-13T00:31:03.810Z,7.47
2023-03-13T00:32:03.678Z,7.48
2023-03-13T00:33:03.598Z,7.45
2023-03-13T00:34:03.584Z,7.48
2023-03-13T00:35:03.597Z,7.47
2023-03-13T00:36:03.557Z,7.47
2023-03-13T00:37:03.546Z,7.43
2023-03-13T00:38:03.530Z,7.43
2023-03-13T00:39:03.525Z,7.42
2023-03-13T00:40:03.507Z,7.43
2023-03-13T00:41:03.506Z,7.43
2023-03-13T00:42:03.474Z,7.43
2023-03-13T00:43:03.462Z,7.42
2023-03-13T00:44:03.480Z,7.40
2023-03-13T00:45:03.443Z,7.39
2023-03-13T00:46:03.445Z,7.39
2023-03-13T00:47:03.427Z,7.38
2023-03-13T00:48:03.410Z,7.38
2023-03-13T00:49:03.397Z,7.36
2023-03-13T00:50:03.394Z,7.35
2023-03-13T00:51:03.374Z,7.38
2023-03-13T00:52:03.354Z,7.39
2023-03-13T00:53:03.335Z,7.38
2023-03-13T00:54:03.326Z,7.35
2023-03-13T00:55:03.308Z,7.36
2023-03-13T00:56:03.303Z,7.35
2023-03-13T00:57:03.279Z,7.32
2023-03-13T00:58:03.279Z,7.32
2023-03-13T00:59:03.284Z,7.31
2023-03-13T01:00:03.267Z,7.32
2023-03-13T01:01:03.233Z,7.33
2023-03-13T01:02:03.251Z,7.31
2023-03-13T01:03:03.365Z,7.31
2023-03-13T01:04:03.211Z,7.31
2023-03-13T01:05:03.181Z,7.29
2023-03-13T01:06:03.170Z,7.28
2023-03-13T01:07:03.168Z,7.23
2023-03-13T01:08:03.154Z,7.21
2023-03-13T01:09:03.140Z,7.21
2023-03-13T01:10:03.121Z,7.21
2023-03-13T01:11:03.108Z,7.20
2023-03-13T01:12:03.110Z,7.18
2023-03-13T01:13:03.094Z,7.17
2023-03-13T01:14:03.070Z,7.15
2023-03-13T01:15:03.066Z,7.14
2023-03-13T01:16:03.130Z,7.13
2023-03-13T01:17:03.049Z,7.13
2023-03-13T01:18:03.035Z,7.13
2023-03-13T01:19:03.041Z,7.13
2023-03-13T01:20:02.994Z,7.11
2023-03-13T01:21:02.998Z,7.11
2023-03-13T01:22:02.992Z,7.10
2023-03-13T01:23:02.970Z,7.11
2023-03-13T01:24:02.958Z,7.11
2023-03-13T01:25:02.959Z,7.14
2023-03-13T01:26:02.941Z,7.13
2023-03-13T01:27:02.920Z,7.13
2023-03-13T01:28:02.908Z,7.11
2023-03-13T01:29:02.895Z,7.07
2023-03-13T01:30:02.910Z,7.11
2023-03-13T01:31:02.938Z,7.11
2023-03-13T01:32:02.876Z,7.10
2023-03-13T01:33:02.847Z,7.11
2023-03-13T01:34:02.822Z,7.13
2023-03-13T01:35:02.814Z,7.15
2023-03-13T01:36:02.928Z,7.14
2023-03-13T01:37:02.783Z,7.15
2023-03-13T01:38:02.772Z,7.18
2023-03-13T01:39:02.754Z,7.20
2023-03-13T01:40:02.752Z,7.21
2023-03-13T01:41:02.735Z,7.20
2023-03-13T01:42:02.742Z,7.23
2023-03-13T01:43:02.709Z,7.23
2023-03-13T01:44:02.701Z,7.23
2023-03-13T01:45:02.686Z,7.21
2023-03-13T01:46:02.768Z,7.21
2023-03-13T01:47:02.655Z,7.25
2023-03-13T01:48:02.669Z,7.25
2023-03-13T01:49:02.640Z,7.24
2023-03-13T01:50:02.622Z,7.28
2023-03-13T01:51:02.623Z,7.28
2023-03-13T01:52:02.601Z,7.28
2023-03-13T01:53:02.578Z,7.31
2023-03-13T01:54:02.570Z,7.35
2023-03-13T01:55:02.561Z,7.36
2023-03-13T01:56:02.552Z,7.39
2023-03-13T01:57:02.538Z,7.42
2023-03-13T01:58:02.516Z,7.43
2023-03-13T01:59:02.508Z,7.47
2023-03-13T02:00:02.503Z,7.48
2023-03-13T02:01:02.483Z,7.48
2023-03-13T02:02:02.544Z,7.48
2023-03-13T02:03:02.514Z,7.51
2023-03-13T02:04:02.481Z,7.53
2023-03-13T02:05:02.448Z,7.54
2023-03-13T02:06:02.411Z,7.53
2023-03-13T02:07:02.397Z,7.53
2023-03-13T02:08:02.395Z,7.54
2023-03-13T02:09:02.380Z,7.54
2023-03-13T02:10:02.378Z,7.54
2023-03-13T02:11:02.358Z,7.53
2023-03-13T02:12:02.346Z,7.54
2023-03-13T02:13:02.343Z,7.54
2023-03-13T02:14:02.349Z,7.53
2023-03-13T02:15:02.305Z,7.53
2023-03-13T02:16:02.369Z,7.53
2023-03-13T02:17:02.281Z,7.51
2023-03-13T02:18:02.290Z,7.53
2023-03-13T02:19:02.256Z,7.51
2023-03-13T02:20:02.260Z,7.53
2023-03-13T02:21:02.225Z,7.53
2023-03-13T02:22:02.227Z,7.50
2023-03-13T02:23:02.260Z,7.51
2023-03-13T02:24:02.195Z,7.53
2023-03-13T02:25:02.181Z,7.53
2023-03-13T02:26:02.156Z,7.53
2023-03-13T02:27:02.152Z,7.51
2023-03-13T02:28:02.146Z,7.53
2023-03-13T02:29:02.126Z,7.51
2023-03-13T02:30:02.142Z,7.51
2023-03-13T02:31:02.175Z,7.51
2023-03-13T02:32:02.085Z,7.50
2023-03-13T02:33:02.146Z,7.50
2023-03-13T02:34:02.061Z,7.47
2023-03-13T02:35:02.046Z,7.47
2023-03-13T02:36:02.142Z,7.47
2023-03-13T02:37:02.019Z,7.45
2023-03-13T02:38:02.018Z,7.43
2023-03-13T02:39:01.999Z,7.43
2023-03-13T02:40:01.981Z,7.42
2023-03-13T02:41:01.961Z,7.45
2023-03-13T02:42:01.968Z,7.45
2023-03-13T02:43:01.937Z,7.43
2023-03-13T02:44:01.938Z,7.47
2023-03-13T02:45:01.917Z,7.45
2023-03-13T02:46:01.907Z,7.47
2023-03-13T02:47:01.963Z,7.45
2023-03-13T02:48:01.871Z,7.45
2023-03-13T02:49:01.869Z,7.45
2023-03-13T02:50:01.893Z,7.47
2023-03-13T02:51:01.848Z,7.45
2023-03-13T02:52:01.852Z,7.45
2023-03-13T02:53:01.815Z,7.45
2023-03-13T02:54:01.821Z,7.48
2023-03-13T02:55:01.791Z,7.45
2023-03-13T02:56:01.776Z,7.47
2023-03-13T02:57:01.781Z,7.43
2023-03-13T02:58:01.749Z,7.43
2023-03-13T02:59:01.762Z,7.43
2023-03-13T03:00:01.736Z,7.45
2023-03-13T03:01:01.749Z,7.43
2023-03-13T03:02:01.698Z,7.43
2023-03-13T03:03:01.693Z,7.43
2023-03-13T03:04:01.754Z,7.42
2023-03-13T03:05:01.662Z,7.39
2023-03-13T03:06:01.639Z,7.40
2023-03-13T03:07:01.649Z,7.39
2023-03-13T03:08:01.645Z,7.38
2023-03-13T03:09:01.623Z,7.36
2023-03-13T03:10:01.603Z,7.35
2023-03-13T03:11:01.592Z,7.35
2023-03-13T03:12:01.563Z,7.35
2023-03-13T03:13:01.555Z,7.32
2023-03-13T03:14:01.539Z,7.31
2023-03-13T03:15:01.544Z,7.31
2023-03-13T03:16:01.523Z,7.29
2023-03-13T03:17:01.513Z,7.29
2023-03-13T03:18:01.492Z,7.25
2023-03-13T03:19:01.473Z,7.28
2023-03-13T03:20:01.457Z,7.24
2023-03-13T03:21:01.461Z,7.24
2023-03-13T03:22:01.436Z,7.21
2023-03-13T03:23:01.417Z,7.18
2023-03-13T03:24:01.453Z,7.18
2023-03-13T03:25:01.394Z,7.17
2023-03-13T03:26:01.394Z,7.18
2023-03-13T03:27:01.367Z,7.18
2023-03-13T03:28:01.363Z,7.21
2023-03-13T03:29:01.348Z,7.20
2023-03-13T03:30:01.354Z,7.20
2023-03-13T03:31:01.315Z,7.20
2023-03-13T03:32:01.496Z,7.20
2023-03-13T03:33:01.408Z,7.20
2023-03-13T03:34:01.275Z,7.20
2023-03-13T03:35:01.262Z,7.17
2023-03-13T03:36:01.297Z,7.14
2023-03-13T03:37:01.239Z,7.14
2023-03-13T03:38:01.229Z,7.14
2023-03-13T03:39:01.216Z,7.14
2023-03-13T03:40:01.235Z,7.14
2023-03-13T03:41:01.194Z,7.14
2023-03-13T03:42:01.204Z,7.15
2023-03-13T03:43:01.176Z,7.14
2023-03-13T03:44:01.149Z,7.14
2023-03-13T03:45:01.152Z,7.14
2023-03-13T03:46:01.223Z,7.15
2023-03-13T03:47:01.150Z,7.15
2023-03-13T03:48:01.108Z,7.21
2023-03-13T03:49:01.091Z,7.21
2023-03-13T03:50:01.091Z,7.23
2023-03-13T03:51:01.062Z,7.24
2023-03-13T03:52:01.052Z,7.24
2023-03-13T03:53:01.039Z,7.25
2023-03-13T03:54:01.029Z,7.29
2023-03-13T03:55:01.031Z,7.29
2023-03-13T03:56:01.030Z,7.29
2023-03-13T03:57:01.007Z,7.31
2023-03-13T03:58:00.978Z,7.31
2023-03-13T03:59:00.972Z,7.28
2023-03-13T04:00:00.958Z,7.29
2023-03-13T04:01:00.942Z,7.28
2023-03-13T04:02:00.957Z,7.31
2023-03-13T04:03:01.010Z,7.29
2023-03-13T04:04:00.901Z,7.24
2023-03-13T04:05:00.906Z,7.24
2023-03-13T04:06:00.873Z,7.23
2023-03-13T04:07:00.860Z,7.21
2023-03-13T04:08:00.869Z,7.20
2023-03-13T04:09:00.843Z,7.18
2023-03-13T04:10:00.837Z,7.17
2023-03-13T04:11:00.818Z,7.17
2023-03-13T04:12:00.840Z,7.14
2023-03-13T04:13:00.786Z,7.14
2023-03-13T04:14:00.780Z,7.11
2023-03-13T04:15:00.753Z,7.13
2023-03-13T04:16:00.754Z,7.14
2023-03-13T04:17:00.808Z,7.13
2023-03-13T04:18:00.726Z,7.13
2023-03-13T04:19:00.707Z,7.10
2023-03-13T04:20:00.714Z,7.10
2023-03-13T04:21:00.689Z,7.13
2023-03-13T04:22:00.682Z,7.13
2023-03-13T04:23:00.663Z,7.13
2023-03-13T04:24:00.664Z,7.14
2023-03-13T04:25:00.639Z,7.13
2023-03-13T04:26:00.631Z,7.15
2023-03-13T04:27:00.605Z,7.15
2023-03-13T04:28:00.628Z,7.15
2023-03-13T04:29:00.590Z,7.15
2023-03-13T04:30:00.590Z,7.15
2023-03-13T04:31:00.671Z,7.20
2023-03-13T04:32:00.543Z,7.20
2023-03-13T04:33:00.661Z,7.21
2023-03-13T04:34:00.523Z,7.23
2023-03-13T04:35:00.553Z,7.23
2023-03-13T04:36:00.589Z,7.24
2023-03-13T04:37:00.494Z,7.23
2023-03-13T04:38:00.475Z,7.24
2023-03-13T04:39:00.462Z,7.25
2023-03-13T04:40:00.437Z,7.24
2023-03-13T04:41:00.437Z,7.25
2023-03-13T04:42:00.426Z,7.31
2023-03-13T04:43:00.450Z,7.28
2023-03-13T04:44:00.421Z,7.28
2023-03-13T04:45:00.388Z,7.29
2023-03-13T04:46:00.497Z,7.31
2023-03-13T04:47:00.360Z,7.31
2023-03-13T04:48:00.347Z,7.32
2023-03-13T04:49:00.324Z,7.33
2023-03-13T04:50:00.322Z,7.35
2023-03-13T04:51:00.307Z,7.36
2023-03-13T04:52:00.296Z,7.36
2023-03-13T04:53:00.281Z,7.39
2023-03-13T04:54:00.274Z,7.40
2023-03-13T04:55:00.257Z,7.40
2023-03-13T04:56:00.243Z,7.45
2023-03-13T04:57:00.224Z,7.47
2023-03-13T04:58:00.222Z,7.50
2023-03-13T04:59:00.205Z,7.50
2023-03-13T05:00:00.233Z,7.53
2023-03-13T05:01:00.280Z,7.56
2023-03-13T05:02:00.161Z,7.60
2023-03-13T05:03:00.155Z,7.60
2023-03-13T05:04:00.150Z,7.67
2023-03-13T05:05:00.250Z,7.70
2023-03-13T05:06:00.151Z,7.72
2023-03-13T05:07:00.140Z,7.73
2023-03-13T05:08:00.118Z,7.80
2023-03-13T05:09:00.095Z,7.87
2023-03-13T05:10:00.058Z,7.91
2023-03-13T05:11:00.071Z,7.94
2023-03-13T05:12:00.052Z,7.97
2023-03-13T05:13:00.022Z,7.98
2023-03-13T05:14:00.016Z,8.00
2023-03-13T05:14:59.999Z,8.01
2023-03-13T05:16:00.090Z,8.03
2023-03-13T05:16:59.983Z,8.06
2023-03-13T05:17:59.978Z,8.09
2023-03-13T05:18:59.950Z,8.09
2023-03-13T05:19:59.934Z,8.15
2023-03-13T05:20:59.918Z,8.20
2023-03-13T05:21:59.911Z,8.26
2023-03-13T05:22:59.901Z,8.26
2023-03-13T05:23:59.890Z,8.28
2023-03-13T05:24:59.871Z,8.31
2023-03-13T05:25:59.861Z,8.33
2023-03-13T05:26:59.856Z,8.36
2023-03-13T05:27:59.857Z,8.37
2023-03-13T05:28:59.823Z,8.37
2023-03-13T05:29:59.810Z,8.38
2023-03-13T05:30:59.860Z,8.45
2023-03-13T05:31:59.818Z,8.49
2023-03-13T05:32:59.871Z,8.51
2023-03-13T05:33:59.770Z,8.55
2023-03-13T05:34:59.755Z,8.58
2023-03-13T05:35:59.854Z,8.61
2023-03-13T05:36:59.723Z,8.60
2023-03-13T05:37:59.707Z,8.64
2023-03-13T05:38:59.713Z,8.67
2023-03-13T05:39:59.681Z,8.69
2023-03-13T05:40:59.675Z,8.70
2023-03-13T05:41:59.661Z,8.71
2023-03-13T05:42:59.645Z,8.74
2023-03-13T05:43:59.652Z,8.78
2023-03-13T05:44:59.622Z,8.78
2023-03-13T05:45:59.630Z,8.81
2023-03-13T05:46:59.605Z,8.81
2023-03-13T05:47:59.604Z,8.81
2023-03-13T05:48:59.574Z,8.81
2023-03-13T05:49:59.563Z,8.79
2023-03-13T05:50:59.552Z,8.79
2023-03-13T05:51:59.524Z,8.82
2023-03-13T05:52:59.520Z,8.79
2023-03-13T05:53:59.494Z,8.81
2023-03-13T05:54:59.499Z,8.81
2023-03-13T05:55:59.475Z,8.79
2023-03-13T05:56:59.470Z,8.78
2023-03-13T05:57:59.441Z,8.76
2023-03-13T05:58:59.426Z,8.78
2023-03-13T05:59:59.415Z,8.76
2023-03-13T06:00:59.408Z,8.78
2023-03-13T06:01:59.405Z,8.76
2023-03-13T06:02:59.382Z,8.74
2023-03-13T06:03:59.597Z,8.76
2023-03-13T06:04:59.482Z,8.76
2023-03-13T06:05:59.389Z,8.78
2023-03-13T06:06:59.331Z,8.78
2023-03-13T06:07:59.308Z,8.78
2023-03-13T06:08:59.303Z,8.81
2023-03-13T06:09:59.296Z,8.82
2023-03-13T06:10:59.279Z,8.85
2023-03-13T06:11:59.264Z,8.88
2023-03-13T06:13:03.173Z,8.89
2023-03-13T06:14:00.277Z,8.94
2023-03-13T06:14:59.217Z,8.95
2023-03-13T06:15:59.266Z,9.03
2023-03-13T06:16:59.194Z,9.06
2023-03-13T06:17:59.191Z,9.04
2023-03-13T06:18:59.172Z,9.10
2023-03-13T06:19:59.199Z,9.06
2023-03-13T06:20:59.142Z,9.06
2023-03-13T06:21:59.137Z,9.04
2023-03-13T06:22:59.126Z,9.06
2023-03-13T06:23:59.113Z,9.03
2023-03-13T06:24:59.095Z,9.06
2023-03-13T06:25:59.095Z,9.06
2023-03-13T06:26:59.077Z,9.04
2023-03-13T06:27:59.064Z,9.06
2023-03-13T06:28:59.051Z,9.11
2023-03-13T06:29:59.038Z,9.13
2023-03-13T06:30:59.036Z,9.16
2023-03-13T06:31:59.211Z,9.23
2023-03-13T06:32:59.156Z,9.25
2023-03-13T06:33:58.985Z,9.29
2023-03-13T06:34:58.975Z,9.32
2023-03-13T06:35:59.013Z,9.36
2023-03-13T06:36:58.966Z,9.37
2023-03-13T06:37:58.924Z,9.41
2023-03-13T06:38:58.932Z,9.40
2023-03-13T06:39:58.924Z,9.43
2023-03-13T06:40:58.908Z,9.44
2023-03-13T06:41:58.880Z,9.46
2023-03-13T06:42:58.876Z,9.47
2023-03-13T06:43:58.859Z,9.51
2023-03-13T06:44:58.851Z,9.54
2023-03-13T06:45:58.843Z,9.56
2023-03-13T06:46:58.852Z,9.62
2023-03-13T06:47:58.806Z,9.65
2023-03-13T06:48:58.796Z,9.69
2023-03-13T06:49:58.782Z,9.72
2023-03-13T06:50:58.773Z,9.72
2023-03-13T06:51:58.804Z,9.73
2023-03-13T06:52:58.744Z,9.73
2023-03-13T06:53:58.734Z,9.74
2023-03-13T06:54:58.720Z,9.74
2023-03-13T06:55:58.708Z,9.74
2023-03-13T06:56:58.694Z,9.74
2023-03-13T06:57:58.672Z,9.77
2023-03-13T06:58:59.965Z,9.82
2023-03-13T06:59:58.653Z,9.82
2023-03-13T07:00:58.775Z,9.83
2023-03-13T07:01:58.622Z,9.86
2023-03-13T07:02:58.612Z,9.91
2023-03-13T07:03:58.742Z,9.92
2023-03-13T07:04:58.595Z,9.95
2023-03-13T07:05:58.587Z,9.98
2023-03-13T07:06:58.576Z,10.01
2023-03-13T07:07:58.584Z,10.02
2023-03-13T07:08:58.539Z,10.07
2023-03-13T07:09:58.526Z,10.09
2023-03-13T07:10:58.515Z,10.12
2023-03-13T07:11:58.519Z,10.13
2023-03-13T07:12:58.496Z,10.15
2023-03-13T07:14:13.637Z,10.22
2023-03-13T07:14:59.498Z,10.28
2023-03-13T07:15:58.484Z,10.35
2023-03-13T07:16:58.611Z,10.40
2023-03-13T07:17:58.426Z,10.44
2023-03-13T07:18:58.412Z,10.51
2023-03-13T07:19:58.467Z,10.54
2023-03-13T07:20:58.398Z,10.56
2023-03-13T07:21:58.382Z,10.57
2023-03-13T07:22:58.364Z,10.59
2023-03-13T07:23:58.383Z,10.60
2023-03-13T07:24:58.339Z,10.63
2023-03-13T07:25:58.335Z,10.67
2023-03-13T07:27:07.143Z,10.67
2023-03-13T07:27:59.336Z,10.69
2023-03-13T07:28:58.301Z,10.71
2023-03-13T07:29:58.278Z,10.74
2023-03-13T07:30:58.263Z,10.74
2023-03-13T07:31:58.309Z,10.79
2023-03-13T07:32:58.325Z,10.86
2023-03-13T07:33:58.222Z,10.94
2023-03-13T07:34:58.223Z,10.99
2023-03-13T07:35:58.247Z,10.99
2023-03-13T07:36:58.185Z,11.00
2023-03-13T07:37:58.170Z,11.00
2023-03-13T07:38:58.168Z,11.02
2023-03-13T07:39:58.175Z,11.04
2023-03-13T07:40:58.148Z,11.05
2023-03-13T07:41:58.156Z,11.07
2023-03-13T07:42:58.116Z,11.07
2023-03-13T07:43:58.095Z,11.07
2023-03-13T07:44:58.097Z,11.10
2023-03-13T07:45:58.135Z,11.14
2023-03-13T07:46:59.506Z,11.17
2023-03-13T07:47:58.055Z,11.19
2023-03-13T07:48:58.039Z,11.22
2023-03-13T07:49:58.071Z,11.25
2023-03-13T07:50:58.010Z,11.26
2023-03-13T07:51:58.012Z,11.29
2023-03-13T07:52:58.046Z,11.30
2023-03-13T07:53:57.970Z,11.36
2023-03-13T07:54:57.985Z,11.41
2023-03-13T07:55:57.960Z,11.48
2023-03-13T07:56:57.936Z,11.54
2023-03-13T07:57:57.914Z,11.62
2023-03-13T07:58:57.905Z,11.66
2023-03-13T07:59:57.897Z,11.70
2023-03-13T08:00:57.888Z,11.78
2023-03-13T08:01:57.925Z,11.84
2023-03-13T08:02:57.943Z,11.90
2023-03-13T08:03:57.846Z,11.94
2023-03-13T08:04:58.993Z,11.97
2023-03-13T08:05:57.818Z,12.00
2023-03-13T08:06:57.814Z,12.06
2023-03-13T08:07:57.794Z,12.29
2023-03-13T08:08:57.775Z,12.61
2023-03-13T08:09:57.761Z,12.94
2023-03-13T08:10:57.748Z,13.08
2023-03-13T08:11:57.769Z,13.62
2023-03-13T08:12:57.716Z,13.99
2023-03-13T08:13:57.721Z,14.17
2023-03-13T08:14:57.697Z,14.08
2023-03-13T08:15:57.680Z,14.48
2023-03-13T08:16:57.727Z,14.44
2023-03-13T08:17:57.682Z,14.41
2023-03-13T08:18:57.652Z,14.33
2023-03-13T08:19:57.639Z,13.99
2023-03-13T08:20:57.617Z,13.74
2023-03-13T08:21:57.609Z,13.50
2023-03-13T08:22:57.584Z,13.35
2023-03-13T08:23:57.584Z,13.12
2023-03-13T08:24:57.568Z,13.00
2023-03-13T08:25:57.551Z,12.97
2023-03-13T08:26:57.540Z,13.15
2023-03-13T08:27:57.558Z,13.12
2023-03-13T08:28:57.514Z,13.01
2023-03-13T08:29:57.502Z,12.95
2023-03-13T08:30:57.542Z,12.94
2023-03-13T08:31:57.479Z,12.93
2023-03-13T08:32:57.545Z,12.83
2023-03-13T08:33:57.462Z,12.73
2023-03-13T08:34:57.456Z,12.82
2023-03-13T08:35:57.497Z,12.90
2023-03-13T08:36:57.418Z,12.97
2023-03-13T08:37:57.417Z,12.95
2023-03-13T08:38:57.397Z,12.94
2023-03-13T08:39:57.385Z,12.90
2023-03-13T08:40:57.365Z,12.86
2023-03-13T08:41:57.355Z,12.80
2023-03-13T08:42:57.345Z,12.80
2023-03-13T08:43:57.451Z,12.83
2023-03-13T08:44:57.342Z,12.87
2023-03-13T08:45:57.365Z,12.82
2023-03-13T08:46:57.315Z,12.83
2023-03-13T08:47:57.268Z,12.82
2023-03-13T08:48:57.253Z,12.80
2023-03-13T08:49:57.256Z,12.83
2023-03-13T08:50:57.269Z,12.80
2023-03-13T08:51:57.216Z,12.82
2023-03-13T08:52:57.212Z,12.90
2023-03-13T08:53:57.203Z,12.97
2023-03-13T08:54:57.192Z,13.12
2023-03-13T08:55:57.175Z,13.22
2023-03-13T08:56:57.172Z,13.30
2023-03-13T08:57:57.158Z,13.38
2023-03-13T08:58:57.141Z,13.56
2023-03-13T08:59:57.273Z,13.63
2023-03-13T09:00:57.109Z,13.57
2023-03-13T09:01:57.101Z,13.50
2023-03-13T09:02:57.154Z,13.60
2023-03-13T09:03:57.911Z,13.78
2023-03-13T09:04:57.071Z,14.15
2023-03-13T09:05:57.048Z,14.55
2023-03-13T09:06:57.035Z,14.77
2023-03-13T09:07:57.014Z,15.00
2023-03-13T09:08:57.018Z,14.96
2023-03-13T09:09:56.986Z,14.92
2023-03-13T09:10:56.982Z,14.86
2023-03-13T09:11:56.974Z,14.85
2023-03-13T09:12:56.964Z,14.97
2023-03-13T09:13:56.942Z,14.84
2023-03-13T09:14:56.936Z,14.78
2023-03-13T09:15:57.003Z,14.94
2023-03-13T09:16:56.909Z,15.00
2023-03-13T09:17:56.922Z,15.33
2023-03-13T09:18:56.875Z,15.47
2023-03-13T09:20:00.470Z,15.51
2023-03-13T09:20:56.853Z,15.52
2023-03-13T09:21:56.835Z,15.43
2023-03-13T09:22:56.835Z,15.58
2023-03-13T09:23:56.828Z,15.57
2023-03-13T09:24:56.813Z,15.86
2023-03-13T09:25:56.801Z,15.90
2023-03-13T09:27:01.278Z,15.54
2023-03-13T09:27:56.770Z,15.35
2023-03-13T09:28:56.762Z,15.27
2023-03-13T09:29:56.759Z,15.18
2023-03-13T09:30:56.741Z,15.24
2023-03-13T09:31:56.771Z,15.28
2023-03-13T09:32:56.726Z,15.55
2023-03-13T09:33:56.713Z,15.57
2023-03-13T09:34:56.684Z,15.75
2023-03-13T09:35:56.702Z,15.79
2023-03-13T09:36:56.688Z,15.77
2023-03-13T09:37:56.651Z,15.79
2023-03-13T09:38:56.625Z,15.59
2023-03-13T09:39:56.628Z,15.37
2023-03-13T09:41:05.745Z,15.21
2023-03-13T09:41:57.641Z,15.15
2023-03-13T09:42:56.585Z,15.72
2023-03-13T09:43:56.555Z,15.86
2023-03-13T09:44:56.565Z,15.67
2023-03-13T09:45:56.608Z,15.68
2023-03-13T09:46:56.544Z,15.51
2023-03-13T09:47:56.538Z,15.39
2023-03-13T09:48:56.489Z,15.24
2023-03-13T09:49:56.483Z,15.29
2023-03-13T09:50:56.474Z,15.36
2023-03-13T09:51:56.458Z,15.29
2023-03-13T09:52:56.456Z,15.29
2023-03-13T09:53:56.450Z,15.43
2023-03-13T09:54:56.411Z,15.68
2023-03-13T09:55:56.406Z,15.70
2023-03-13T09:56:56.395Z,15.73
2023-03-13T09:57:56.374Z,16.08
2023-03-13T09:58:56.358Z,16.56
2023-03-13T09:59:56.357Z,16.65
2023-03-13T10:00:56.344Z,16.32
2023-03-13T10:01:56.368Z,16.12
2023-03-13T10:02:56.321Z,16.00
2023-03-13T10:03:56.384Z,15.97
2023-03-13T10:04:56.302Z,16.04
2023-03-13T10:05:56.267Z,15.86
2023-03-13T10:06:56.256Z,15.84
2023-03-13T10:07:56.256Z,15.73
2023-03-13T10:08:56.240Z,15.64
2023-03-13T10:09:56.234Z,15.73
2023-03-13T10:10:56.211Z,15.91
2023-03-13T10:11:56.209Z,16.21
2023-03-13T10:12:56.184Z,16.51
2023-03-13T10:13:56.164Z,16.79
2023-03-13T10:14:56.168Z,17.14
2023-03-13T10:15:56.191Z,17.33
2023-03-13T10:16:56.135Z,17.44
2023-03-13T10:17:56.123Z,17.56
2023-03-13T10:18:56.111Z,17.67
2023-03-13T10:19:56.123Z,17.41
2023-03-13T10:20:56.117Z,17.19
2023-03-13T10:21:56.069Z,17.19
2023-03-13T10:22:56.055Z,17.08
2023-03-13T10:23:56.049Z,16.93
2023-03-13T10:24:56.027Z,16.84
2023-03-13T10:25:56.030Z,16.64
2023-03-13T10:26:56.000Z,16.36
2023-03-13T10:27:55.996Z,16.21
2023-03-13T10:28:55.971Z,16.24
2023-03-13T10:29:55.958Z,16.17
2023-03-13T10:30:56.048Z,16.13
2023-03-13T10:31:55.958Z,16.16
2023-03-13T10:32:56.006Z,16.16
2023-03-13T10:33:55.919Z,16.10
2023-03-13T10:34:55.906Z,15.95
2023-03-13T10:35:55.948Z,15.91
2023-03-13T10:36:55.881Z,15.82
2023-03-13T10:37:55.858Z,15.90
2023-03-13T10:38:55.852Z,15.98
2023-03-13T10:39:55.836Z,15.98
2023-03-13T10:40:55.823Z,16.04
2023-03-13T10:41:55.817Z,16.04
2023-03-13T10:42:55.789Z,16.04
2023-03-13T10:43:55.787Z,16.15
2023-03-13T10:44:55.766Z,16.23
2023-03-13T10:45:55.761Z,16.32
2023-03-13T10:46:55.789Z,16.39
2023-03-13T10:47:55.737Z,16.47
2023-03-13T10:48:55.757Z,16.56
2023-03-13T10:49:55.718Z,16.66
2023-03-13T10:50:55.690Z,16.64
2023-03-13T10:51:55.757Z,16.66
2023-03-13T10:52:55.678Z,16.58
2023-03-13T10:53:55.650Z,16.71
2023-03-13T10:54:55.644Z,16.69
2023-03-13T10:55:55.641Z,16.71
2023-03-13T10:56:55.612Z,16.79
2023-03-13T10:57:55.614Z,16.87
2023-03-13T10:58:55.594Z,16.90
2023-03-13T10:59:55.579Z,16.94
2023-03-13T11:00:55.563Z,17.06
2023-03-13T11:01:55.563Z,17.11
2023-03-13T11:02:55.632Z,16.83
2023-03-13T11:03:55.641Z,16.58
2023-03-13T11:04:55.525Z,16.38
2023-03-13T11:05:55.517Z,16.38
2023-03-13T11:06:55.480Z,16.57
2023-03-13T11:07:55.525Z,16.69
2023-03-13T11:08:55.464Z,16.69
2023-03-13T11:09:55.443Z,16.76
2023-03-13T11:10:55.439Z,16.78
2023-03-13T11:11:55.445Z,16.72
2023-03-13T11:12:55.435Z,16.72
2023-03-13T11:13:55.396Z,16.74
2023-03-13T11:14:55.407Z,16.65
2023-03-13T11:15:55.395Z,16.61
2023-03-13T11:16:55.374Z,16.57
2023-03-13T11:17:55.350Z,16.54
2023-03-13T11:18:55.328Z,16.61
2023-03-13T11:19:55.335Z,16.72
2023-03-13T11:20:56.566Z,16.69
2023-03-13T11:21:55.342Z,16.76
2023-03-13T11:22:55.282Z,16.84
2023-03-13T11:23:55.297Z,16.86
2023-03-13T11:24:55.275Z,16.93
2023-03-13T11:25:55.239Z,16.96
2023-03-13T11:27:04.119Z,17.01
2023-03-13T11:27:56.259Z,16.94
2023-03-13T11:28:55.213Z,16.94
2023-03-13T11:29:55.308Z,16.96
2023-03-13T11:30:55.174Z,16.90
2023-03-13T11:31:55.296Z,16.78
2023-03-13T11:32:55.223Z,16.71
2023-03-13T11:33:55.161Z,16.71
2023-03-13T11:34:55.132Z,16.89
2023-03-13T11:35:55.194Z,16.96
2023-03-13T11:36:55.112Z,17.01
2023-03-13T11:37:55.133Z,17.09
2023-03-13T11:38:55.089Z,17.22
2023-03-13T11:39:55.107Z,17.23
2023-03-13T11:40:55.059Z,17.24
2023-03-13T11:41:55.195Z,17.15
2023-03-13T11:42:55.035Z,17.11
2023-03-13T11:43:55.029Z,17.19
2023-03-13T11:44:55.020Z,17.27
2023-03-13T11:45:55.110Z,17.36
2023-03-13T11:46:55.063Z,17.39
2023-03-13T11:47:54.958Z,17.46
2023-03-13T11:48:54.974Z,17.46
2023-03-13T11:49:54.943Z,17.48
2023-03-13T11:50:54.919Z,17.33
2023-03-13T11:51:54.914Z,17.34
2023-03-13T11:52:54.955Z,17.42
2023-03-13T11:53:54.882Z,17.51
2023-03-13T11:54:54.878Z,17.51
2023-03-13T11:55:54.895Z,17.51
2023-03-13T11:56:54.858Z,17.68
2023-03-13T11:57:54.837Z,17.78
2023-03-13T11:58:54.830Z,17.78
2023-03-13T11:59:54.821Z,17.90
2023-03-13T12:00:54.869Z,18.00
2023-03-13T12:01:54.837Z,18.08
2023-03-13T12:02:54.779Z,18.07
2023-03-13T12:03:54.875Z,17.94
2023-03-13T12:04:54.869Z,17.78
2023-03-13T12:05:54.746Z,17.63
2023-03-13T12:06:54.723Z,17.54
2023-03-13T12:07:54.721Z,17.36
2023-03-13T12:08:54.716Z,17.14
2023-03-13T12:09:54.683Z,17.16
2023-03-13T12:10:54.676Z,17.14
2023-03-13T12:11:54.693Z,17.01
2023-03-13T12:12:54.644Z,17.11
2023-03-13T12:13:54.639Z,17.14
2023-03-13T12:14:54.624Z,17.16
2023-03-13T12:15:54.638Z,17.19
2023-03-13T12:16:54.730Z,17.12
2023-03-13T12:17:54.625Z,17.14
2023-03-13T12:18:54.566Z,17.23
2023-03-13T12:19:54.561Z,17.29
2023-03-13T12:20:54.540Z,17.34
2023-03-13T12:21:54.595Z,17.44
2023-03-13T12:22:54.521Z,17.46
2023-03-13T12:23:54.583Z,17.57
2023-03-13T12:24:54.496Z,17.49
2023-03-13T12:25:54.573Z,17.48
2023-03-13T12:26:54.467Z,17.34
2023-03-13T12:27:54.520Z,17.23
2023-03-13T12:28:54.455Z,17.26
2023-03-13T12:29:54.445Z,17.26
2023-03-13T12:30:54.512Z,17.30
2023-03-13T12:31:54.404Z,17.31
2023-03-13T12:32:54.477Z,17.36
2023-03-13T12:33:54.390Z,17.31
2023-03-13T12:34:54.369Z,17.33
2023-03-13T12:35:54.411Z,17.31
2023-03-13T12:36:54.359Z,17.36
2023-03-13T12:37:54.362Z,17.31
2023-03-13T12:38:54.329Z,17.23
2023-03-13T12:39:54.322Z,17.24
2023-03-13T12:40:54.298Z,17.24
2023-03-13T12:41:54.291Z,17.24
2023-03-13T12:42:54.276Z,17.36
2023-03-13T12:44:07.669Z,17.45
2023-03-13T12:44:55.278Z,17.36
2023-03-13T12:45:54.397Z,17.27
2023-03-13T12:46:54.288Z,17.27
2023-03-13T12:47:54.231Z,17.31
2023-03-13T12:48:54.202Z,17.34
2023-03-13T12:49:54.188Z,17.46
2023-03-13T12:50:54.175Z,17.46
2023-03-13T12:51:54.168Z,17.39
2023-03-13T12:52:54.149Z,17.38
2023-03-13T12:53:54.201Z,17.41
2023-03-13T12:54:54.131Z,17.44
2023-03-13T12:55:54.112Z,17.49
2023-03-13T12:56:54.103Z,17.54
2023-03-13T12:57:54.179Z,17.39
2023-03-13T12:58:54.077Z,17.41
2023-03-13T12:59:54.080Z,17.51
2023-03-13T13:00:54.048Z,17.48
2023-03-13T13:01:54.085Z,17.54
2023-03-13T13:02:54.019Z,17.46
2023-03-13T13:03:54.132Z,17.45
2023-03-13T13:04:53.990Z,17.41
2023-03-13T13:05:53.988Z,17.38